Bookmark and Share
Track history (hours):
 

Dong Fang You 2

Last reported at 2014-Apr-16 06:30 UTC. Time now 2014-Apr-16 07:45 UTC.
Position N 19°43' E 109°08'.

Length 82 m; draft 3 m.

MMSI: 412464680.

NotesDate/timePositionNaut miles runAvg speedWind from/ knotsBaromVisibWave heightAir tempDewpointWater temp
2014-Apr-16 06:30N 19°43' E 109°08'0 0.1
2014-Apr-16 05:33N 19°43' E 109°08'0 0.1
2014-Apr-16 04:33N 19°43' E 109°08'0 0.0
2014-Apr-16 03:04N 19°43' E 109°08'0 0.0
2014-Apr-16 02:32N 19°43' E 109°08'0 0.0
2014-Apr-16 01:29N 19°43' E 109°08'0 0.0
2014-Apr-16 00:31N 19°43' E 109°08'0 0.0
2014-Apr-15 23:32N 19°43' E 109°08'0 0.0
2014-Apr-15 22:33N 19°43' E 109°08'0 0.0
2014-Apr-15 21:33N 19°43' E 109°08'0 0.0
2014-Apr-15 20:27N 19°43' E 109°08'0 0.0
2014-Apr-15 19:33N 19°43' E 109°08'0 0.0
2014-Apr-15 18:32N 19°43' E 109°08'0 0.0
2014-Apr-15 17:33N 19°43' E 109°08'0 0.0
2014-Apr-15 16:32N 19°43' E 109°08'0 0.0
2014-Apr-15 15:29N 19°43' E 109°08'0 0.0
2014-Apr-15 14:33N 19°43' E 109°08'0 0.0
2014-Apr-15 12:32N 19°43' E 109°08'0 0.0
2014-Apr-15 11:34N 19°43' E 109°08'0 0.0
2014-Apr-15 10:32N 19°43' E 109°08'0 0.0
2014-Apr-15 09:33N 19°43' E 109°08'0 0.0
2014-Apr-15 08:33N 19°43' E 109°08'0 0.0
2014-Apr-15 07:33N 19°43' E 109°08'0 0.0
2014-Apr-15 03:33N 19°43' E 109°08'0 0.0
2014-Apr-15 01:34N 19°43' E 109°08'0 0.0
2014-Apr-15 00:32N 19°43' E 109°08'0 0.0
2014-Apr-14 23:31N 19°43' E 109°08'0 0.0
2014-Apr-14 22:34N 19°43' E 109°08'0 0.0
2014-Apr-14 21:33N 19°43' E 109°08'0 0.0
2014-Apr-14 20:32N 19°43' E 109°08'0 0.0
2014-Apr-14 19:30N 19°43' E 109°08'0 0.0
2014-Apr-14 18:33N 19°43' E 109°08'0 0.0
2014-Apr-14 17:34N 19°43' E 109°08'4 4.4
2014-Apr-14 16:33N 19°47' E 109°07'  
2014-Apr-12 01:31N 21°39' E 112°60'1010.4
2014-Apr-12 00:33N 21°44' E 113°09'1110.9
2014-Apr-11 23:33N 21°50' E 113°18'1210.3
2014-Apr-11 22:21N 21°57' E 113°29'810.1
2014-Apr-11 21:33N 22°02' E 113°36'10 9.9
2014-Apr-11 20:34N 22°10' E 113°42'9 9.3
2014-Apr-11 19:33N 22°18' E 113°48'3510.2
2014-Apr-11 16:09N 22°50' E 113°35'5 8.5
2014-Apr-11 15:33N 22°55' E 113°34'0 0.2
2014-Apr-11 13:13N 22°56' E 113°34'0 0.0
2014-Apr-11 11:33N 22°56' E 113°34'0 0.0
2014-Apr-11 10:33N 22°56' E 113°34'0 0.0
2014-Apr-11 09:28N 22°56' E 113°34'0 0.0
2014-Apr-11 08:32N 22°56' E 113°34'0 0.0
2014-Apr-11 07:33N 22°56' E 113°34'0 0.0
2014-Apr-11 06:19N 22°56' E 113°34'0 0.0
2014-Apr-11 05:33N 22°56' E 113°34'0 0.0
2014-Apr-11 04:30N 22°56' E 113°34'5 5.1
2014-Apr-11 03:33N 22°51' E 113°34'0 0.0
2014-Apr-11 02:34N 22°51' E 113°34'0 0.1
2014-Apr-11 01:33N 22°51' E 113°34'0 0.0
2014-Apr-11 00:26N 22°51' E 113°34'19 8.2
2014-Apr-10 22:08N 22°34' E 113°43'711.9
2014-Apr-10 21:33N 22°28' E 113°45'1010.5
2014-Apr-10 20:33N 22°18' E 113°48'9 9.0
2014-Apr-10 19:33N 22°11' E 113°42'9 8.8
2014-Apr-10 18:33N 22°03' E 113°37'21 8.7
2014-Apr-10 16:04N 21°52' E 113°17'4 8.0
2014-Apr-10 15:33N 21°50' E 113°13'9 9.1
2014-Apr-10 14:33N 21°57' E 113°08'8 7.7
2014-Apr-10 13:33N 22°05' E 113°05'9 8.2
2014-Apr-10 12:31N 22°13' E 113°07'2 0.1
2014-Apr-09 03:31N 22°11' E 113°06'7 7.5
2014-Apr-09 02:33N 22°04' E 113°05'7 7.6
2014-Apr-09 01:33N 21°57' E 113°08'8 7.9
2014-Apr-09 00:33N 21°51' E 113°14'2 1.8
2014-Apr-08 23:34N 21°50' E 113°16'0 0.0
2014-Apr-08 22:33N 21°51' E 113°16'0 0.0
2014-Apr-08 21:33N 21°51' E 113°16'0 0.0
2014-Apr-08 20:33N 21°51' E 113°16'0 0.0
2014-Apr-08 19:33N 21°51' E 113°16'0 0.0
2014-Apr-08 18:33N 21°51' E 113°16'3 3.4
2014-Apr-08 17:33N 21°49' E 113°13'9 8.7
2014-Apr-08 16:33N 21°43' E 113°06'8 8.2
2014-Apr-08 15:33N 21°38' E 112°59'244 8.7
2014-Apr-07 11:20N 19°48' E 109°05'  

Dump ship's entire track history

sailing weather and tide predictions

Dong Fang You 2 — BXEC — position and weather